createdAt,value
2022-10-20T00:00:06.462Z,5.00
2022-10-20T00:03:08.389Z,4.72
2022-10-20T00:06:12.665Z,5.00
2022-10-20T00:09:14.767Z,4.88
2022-10-20T00:12:18.048Z,4.63
2022-10-20T00:15:19.983Z,4.32
2022-10-20T00:18:23.282Z,4.18
2022-10-20T00:21:27.822Z,4.38
2022-10-20T00:24:29.684Z,4.63
2022-10-20T00:27:33.041Z,5.03
2022-10-20T00:30:35.658Z,4.47
2022-10-20T00:33:38.010Z,4.03
2022-10-20T00:36:40.370Z,4.60
2022-10-20T00:39:42.219Z,4.45
2022-10-20T00:42:46.325Z,4.20
2022-10-20T00:45:53.970Z,4.47
2022-10-20T00:49:00.808Z,4.32
2022-10-20T00:52:03.068Z,4.60
2022-10-20T00:55:07.377Z,4.18
2022-10-20T00:58:10.668Z,3.83
2022-10-20T01:01:14.354Z,4.28
2022-10-20T01:04:17.227Z,3.78
2022-10-20T01:07:19.568Z,3.80
2022-10-20T01:10:23.330Z,4.15
2022-10-20T01:13:35.614Z,4.13
2022-10-20T01:16:47.631Z,3.90
2022-10-20T01:20:18.761Z,3.60
2022-10-20T01:23:48.288Z,3.58
2022-10-20T01:27:20.719Z,4.30
2022-10-20T01:30:24.087Z,3.95
2022-10-20T01:33:36.886Z,3.80
2022-10-20T01:36:45.825Z,4.28
2022-10-20T01:39:53.755Z,3.95
2022-10-20T01:42:59.816Z,3.97
2022-10-20T01:46:05.634Z,3.92
2022-10-20T01:49:08.790Z,4.25
2022-10-20T01:52:10.965Z,3.90
2022-10-20T01:55:14.459Z,3.58
2022-10-20T01:58:29.952Z,3.90
2022-10-20T02:01:49.633Z,3.70
2022-10-20T02:05:09.135Z,3.65
2022-10-20T02:08:15.587Z,3.58
2022-10-20T02:11:25.646Z,3.80
2022-10-20T02:14:28.517Z,4.15
2022-10-20T02:17:35.696Z,3.40
2022-10-20T02:20:38.033Z,4.20
2022-10-20T02:23:45.023Z,4.00
2022-10-20T02:26:47.484Z,3.55
2022-10-20T02:29:55.738Z,3.70
2022-10-20T02:32:59.001Z,3.95
2022-10-20T02:36:05.307Z,3.63
2022-10-20T02:39:08.214Z,3.65
2022-10-20T02:42:10.127Z,4.07
2022-10-20T02:45:12.064Z,3.97
2022-10-20T02:48:15.416Z,3.70
2022-10-20T02:51:17.304Z,4.30
2022-10-20T02:54:19.543Z,3.83
2022-10-20T02:57:21.551Z,4.13
2022-10-20T03:00:23.565Z,4.30
2022-10-20T03:03:26.982Z,4.03
2022-10-20T03:06:28.892Z,3.80
2022-10-20T03:09:30.805Z,4.47
2022-10-20T03:12:33.097Z,3.88
2022-10-20T03:15:35.053Z,3.78
2022-10-20T03:18:38.728Z,3.83
2022-10-20T03:21:40.714Z,4.22
2022-10-20T03:24:42.949Z,4.28
2022-10-20T03:27:44.852Z,4.55
2022-10-20T03:30:46.758Z,4.53
2022-10-20T03:33:50.248Z,4.38
2022-10-20T03:36:52.284Z,4.50
2022-10-20T03:39:54.650Z,4.05
2022-10-20T03:42:56.526Z,4.50
2022-10-20T03:46:02.766Z,4.40
2022-10-20T03:49:07.763Z,4.18
2022-10-20T03:52:09.741Z,4.50
2022-10-20T03:55:11.683Z,4.43
2022-10-20T03:58:13.576Z,4.60
2022-10-20T04:01:17.596Z,4.63
2022-10-20T04:04:20.931Z,4.50
2022-10-20T04:07:23.023Z,4.05
2022-10-20T04:10:25.882Z,4.40
2022-10-20T04:13:27.801Z,4.55
2022-10-20T04:16:29.769Z,4.95
2022-10-20T04:19:33.096Z,4.38
2022-10-20T04:22:35.555Z,4.28
2022-10-20T04:25:40.135Z,4.55
2022-10-20T04:28:42.448Z,4.90
2022-10-20T04:31:48.176Z,4.80
2022-10-20T04:34:52.572Z,4.65
2022-10-20T04:37:54.739Z,4.63
2022-10-20T04:40:59.166Z,5.05
2022-10-20T04:44:04.061Z,4.65
2022-10-20T04:47:06.323Z,4.63
2022-10-20T04:50:10.104Z,4.18
2022-10-20T04:53:12.047Z,4.45
2022-10-20T04:56:18.329Z,4.68
2022-10-20T04:59:20.318Z,4.72
2022-10-20T05:02:22.787Z,5.05
2022-10-20T05:05:26.412Z,5.18
2022-10-20T05:08:28.461Z,4.95
2022-10-20T05:11:31.776Z,5.63
2022-10-20T05:14:33.744Z,5.00
2022-10-20T05:17:35.706Z,4.80
2022-10-20T05:20:41.241Z,4.82
2022-10-20T05:23:56.071Z,4.75
2022-10-20T05:26:57.992Z,5.35
2022-10-20T05:30:01.131Z,5.20
2022-10-20T05:33:03.780Z,4.95
2022-10-20T05:36:12.050Z,4.75
2022-10-20T05:39:14.224Z,4.88
2022-10-20T05:42:16.121Z,4.45
2022-10-20T05:45:18.045Z,4.93
2022-10-20T05:48:20.002Z,5.07
2022-10-20T05:51:26.559Z,4.93
2022-10-20T05:54:28.538Z,5.43
2022-10-20T05:57:30.635Z,4.95
2022-10-20T06:00:32.946Z,4.55
2022-10-20T06:03:35.248Z,5.13
2022-10-20T06:06:38.534Z,4.70
2022-10-20T06:09:41.253Z,5.10
2022-10-20T06:12:43.168Z,4.75
2022-10-20T06:15:45.456Z,4.65
2022-10-20T06:18:47.663Z,4.00
2022-10-20T06:21:51.757Z,4.68
2022-10-20T06:24:53.683Z,5.30
2022-10-20T06:27:55.607Z,6.32
2022-10-20T06:30:57.484Z,4.65
2022-10-20T06:34:00.098Z,3.95
2022-10-20T06:37:03.399Z,4.18
2022-10-20T06:40:06.410Z,4.70
2022-10-20T06:43:08.759Z,4.35
2022-10-20T06:46:14.173Z,4.30
2022-10-20T06:49:16.111Z,4.13
2022-10-20T06:52:19.343Z,4.57
2022-10-20T06:55:21.238Z,4.30
2022-10-20T06:58:24.454Z,4.85
2022-10-20T07:01:28.377Z,4.43
2022-10-20T07:04:30.406Z,4.47
2022-10-20T07:07:33.802Z,4.88
2022-10-20T07:10:36.199Z,4.28
2022-10-20T07:13:39.090Z,4.50
2022-10-20T07:16:42.656Z,4.45
2022-10-20T07:19:44.659Z,4.75
2022-10-20T07:22:48.365Z,4.13
2022-10-20T07:25:50.430Z,4.80
2022-10-20T07:28:55.992Z,5.13
2022-10-20T07:31:59.985Z,5.38
2022-10-20T07:35:04.729Z,5.40
2022-10-20T07:38:08.176Z,5.50
2022-10-20T07:41:10.676Z,4.90
2022-10-20T07:44:12.836Z,5.68
2022-10-20T07:47:14.806Z,5.00
2022-10-20T07:50:16.748Z,5.45
2022-10-20T07:53:20.083Z,5.30
2022-10-20T07:56:23.098Z,5.78
2022-10-20T07:59:25.137Z,5.13
2022-10-20T08:02:27.152Z,6.05
2022-10-20T08:05:29.131Z,5.22
2022-10-20T08:08:32.975Z,5.43
2022-10-20T08:11:35.356Z,6.07
2022-10-20T08:14:37.348Z,5.95
2022-10-20T08:17:39.393Z,5.75
2022-10-20T08:20:49.227Z,5.53
2022-10-20T08:23:52.553Z,6.70
2022-10-20T08:26:54.551Z,6.00
2022-10-20T08:30:06.308Z,6.75
2022-10-20T08:33:18.357Z,6.55
2022-10-20T08:36:21.278Z,6.38
2022-10-20T08:39:24.831Z,6.75
2022-10-20T08:42:27.045Z,6.38
2022-10-20T08:45:28.944Z,6.53
2022-10-20T08:48:34.047Z,5.70
2022-10-20T08:51:37.774Z,6.60
2022-10-20T08:54:41.235Z,5.88
2022-10-20T08:57:43.430Z,6.32
2022-10-20T09:00:46.811Z,6.22
2022-10-20T09:03:54.646Z,6.38
2022-10-20T09:07:00.198Z,5.82
2022-10-20T09:10:13.820Z,5.68
2022-10-20T09:13:20.705Z,5.35
2022-10-20T09:16:40.929Z,5.38
2022-10-20T09:19:48.513Z,5.78
2022-10-20T09:22:50.639Z,5.90
2022-10-20T09:25:53.954Z,5.35
2022-10-20T09:29:13.087Z,5.60
2022-10-20T09:32:45.561Z,5.45
2022-10-20T09:35:47.296Z,5.75
2022-10-20T09:38:51.200Z,5.53
2022-10-20T09:42:04.017Z,5.53
2022-10-20T09:45:16.484Z,5.85
2022-10-20T09:48:23.841Z,5.35
2022-10-20T09:51:28.159Z,5.68
2022-10-20T09:54:30.806Z,5.75
2022-10-20T09:57:34.646Z,5.50
2022-10-20T10:00:44.338Z,5.97
2022-10-20T10:03:47.130Z,5.97
2022-10-20T10:06:49.033Z,5.65
2022-10-20T10:09:56.126Z,5.55
2022-10-20T10:13:01.752Z,5.45
2022-10-20T10:16:07.021Z,5.45
2022-10-20T10:19:18.106Z,5.53
2022-10-20T10:22:20.306Z,5.70
2022-10-20T10:25:27.217Z,5.90
2022-10-20T10:28:36.589Z,6.43
2022-10-20T10:35:09.423Z,6.35
2022-10-20T10:38:13.788Z,6.15
2022-10-20T10:41:24.062Z,6.10
2022-10-20T10:44:42.534Z,6.50
2022-10-20T10:48:18.120Z,5.90
2022-10-20T10:51:36.305Z,6.60
2022-10-20T10:54:49.433Z,5.97
2022-10-20T10:58:02.284Z,6.22
2022-10-20T11:01:19.967Z,6.25
2022-10-20T11:04:40.335Z,6.80
2022-10-20T11:07:46.129Z,6.25
2022-10-20T11:10:54.869Z,6.22
2022-10-20T11:14:10.944Z,5.97
2022-10-20T11:17:29.892Z,5.97
2022-10-20T11:20:40.624Z,6.65
2022-10-20T11:23:59.711Z,6.28
2022-10-20T11:27:04.859Z,6.65
2022-10-20T11:30:14.915Z,6.30
2022-10-20T11:33:22.812Z,6.10
2022-10-20T11:36:31.528Z,6.10
2022-10-20T11:39:41.297Z,6.38
2022-10-20T11:42:48.525Z,6.05
2022-10-20T11:45:53.878Z,6.60
2022-10-20T11:49:00.354Z,6.30
2022-10-20T11:52:22.503Z,6.93
2022-10-20T11:55:35.787Z,4.87
2022-10-20T11:59:01.543Z,6.18
2022-10-20T12:02:46.866Z,6.55
2022-10-20T12:06:27.216Z,6.43
2022-10-20T12:09:49.578Z,4.43
2022-10-20T12:12:58.121Z,6.45
2022-10-20T12:16:00.389Z,6.47
2022-10-20T12:19:07.237Z,6.15
2022-10-20T12:22:43.248Z,6.60
2022-10-20T12:25:45.264Z,6.88
2022-10-20T12:28:47.159Z,6.97
2022-10-20T12:32:24.227Z,7.15
2022-10-20T12:36:01.633Z,7.53
2022-10-20T12:39:20.258Z,7.38
2022-10-20T12:42:27.817Z,7.05
2022-10-20T12:45:38.636Z,6.80
2022-10-20T12:48:46.063Z,7.15
2022-10-20T12:51:51.554Z,7.07
2022-10-20T12:55:02.673Z,6.45
2022-10-20T12:58:12.802Z,6.65
2022-10-20T13:01:15.150Z,6.63
2022-10-20T13:04:50.877Z,6.78
2022-10-20T13:08:00.886Z,7.00
2022-10-20T13:11:48.503Z,6.60
2022-10-20T13:14:55.858Z,6.38
2022-10-20T13:18:00.589Z,6.47
2022-10-20T13:21:18.795Z,6.10
2022-10-20T13:24:28.207Z,6.50
2022-10-20T13:27:30.200Z,7.00
2022-10-20T13:30:35.738Z,6.72
2022-10-20T13:37:29.261Z,6.68
2022-10-20T13:40:44.339Z,6.60
2022-10-20T13:43:57.510Z,7.35
2022-10-20T13:47:10.505Z,7.00
2022-10-20T13:50:16.027Z,7.13
2022-10-20T13:53:22.267Z,7.18
2022-10-20T13:56:34.854Z,6.68
2022-10-20T13:59:39.593Z,7.70
2022-10-20T14:02:53.607Z,6.55
2022-10-20T14:05:55.616Z,7.35
2022-10-20T14:08:59.530Z,7.85
2022-10-20T14:12:04.338Z,8.23
2022-10-20T14:15:08.312Z,6.93
2022-10-20T14:18:22.711Z,7.20
2022-10-20T14:21:24.726Z,7.00
2022-10-20T14:24:31.351Z,8.98
2022-10-20T14:27:36.695Z,7.43
2022-10-20T14:30:41.111Z,8.00
2022-10-20T14:33:46.991Z,7.53
2022-10-20T14:36:50.551Z,7.72
2022-10-20T14:39:52.519Z,8.50
2022-10-20T14:42:59.820Z,7.93
2022-10-20T14:46:03.535Z,8.23
2022-10-20T14:49:15.465Z,8.27
2022-10-20T14:52:22.643Z,7.55
2022-10-20T14:55:31.875Z,8.40
2022-10-20T14:58:37.919Z,8.07
2022-10-20T15:01:40.066Z,8.27
2022-10-20T15:04:44.702Z,8.52
2022-10-20T15:07:46.764Z,8.77
2022-10-20T15:10:49.171Z,9.00
2022-10-20T15:13:52.345Z,8.93
2022-10-20T15:16:54.450Z,9.38
2022-10-20T15:19:58.213Z,8.73
2022-10-20T15:23:02.182Z,8.73
2022-10-20T15:26:06.789Z,8.60
2022-10-20T15:29:11.099Z,9.13
2022-10-20T15:32:13.066Z,9.32
2022-10-20T15:35:18.528Z,9.15
2022-10-20T15:38:21.200Z,8.88
2022-10-20T15:41:25.652Z,9.32
2022-10-20T15:44:27.658Z,9.00
2022-10-20T15:47:29.711Z,8.85
2022-10-20T15:50:33.624Z,9.18
2022-10-20T15:53:36.129Z,9.68
2022-10-20T15:56:38.121Z,9.55
2022-10-20T15:59:40.142Z,9.18
2022-10-20T16:02:42.480Z,10.40
2022-10-20T16:05:46.596Z,9.13
2022-10-20T16:08:50.114Z,9.52
2022-10-20T16:11:52.052Z,9.65
2022-10-20T16:14:54.466Z,8.25
2022-10-20T16:17:57.077Z,7.93
2022-10-20T16:21:01.296Z,8.85
2022-10-20T16:24:03.489Z,9.18
2022-10-20T16:27:05.735Z,9.45
2022-10-20T16:30:08.926Z,9.10
2022-10-20T16:33:11.297Z,8.52
2022-10-20T16:36:16.463Z,9.15
2022-10-20T16:39:18.525Z,8.55
2022-10-20T16:42:21.110Z,8.45
2022-10-20T16:48:32.842Z,8.60
2022-10-20T16:51:38.253Z,8.23
2022-10-20T16:57:44.167Z,8.45
2022-10-20T17:00:56.228Z,7.45
2022-10-20T17:03:59.060Z,8.35
2022-10-20T17:07:03.994Z,8.40
2022-10-20T17:10:07.479Z,8.82
2022-10-20T17:13:09.967Z,8.20
2022-10-20T17:16:15.122Z,7.57
2022-10-20T17:19:19.162Z,8.63
2022-10-20T17:22:26.121Z,7.93
2022-10-20T17:25:31.399Z,8.07
2022-10-20T17:28:36.253Z,8.40
2022-10-20T17:31:39.284Z,7.75
2022-10-20T17:34:42.006Z,7.90
2022-10-20T17:37:46.544Z,7.97
2022-10-20T17:40:49.635Z,7.85
2022-10-20T17:43:53.861Z,7.68
2022-10-20T17:46:57.624Z,7.90
2022-10-20T17:50:00.792Z,8.18
2022-10-20T17:53:05.489Z,7.78
2022-10-20T17:56:11.271Z,7.63
2022-10-20T17:59:14.308Z,7.80
2022-10-20T18:02:17.093Z,7.43
2022-10-20T18:05:20.244Z,7.35
2022-10-20T18:08:26.407Z,7.03
2022-10-20T18:11:31.830Z,7.25
2022-10-20T18:14:34.998Z,7.70
2022-10-20T18:17:38.368Z,7.28
2022-10-20T18:20:41.854Z,7.57
2022-10-20T18:23:47.386Z,7.43
2022-10-20T18:26:54.686Z,6.80
2022-10-20T18:29:57.815Z,7.00
2022-10-20T18:33:01.273Z,7.45
2022-10-20T18:36:05.129Z,8.02
2022-10-20T18:39:10.460Z,7.07
2022-10-20T18:42:14.181Z,6.88
2022-10-20T18:45:17.211Z,7.10
2022-10-20T18:48:20.141Z,7.90
2022-10-20T18:51:23.343Z,7.40
2022-10-20T18:54:27.681Z,7.03
2022-10-20T18:57:31.880Z,7.22
2022-10-20T19:00:35.975Z,8.02
2022-10-20T19:03:42.095Z,7.35
2022-10-20T19:06:46.830Z,7.65
2022-10-20T19:09:54.800Z,7.82
2022-10-20T19:12:59.520Z,6.82
2022-10-20T19:16:07.710Z,7.40
2022-10-20T19:19:13.001Z,6.60
2022-10-20T19:22:16.012Z,7.10
2022-10-20T19:25:20.667Z,7.00
2022-10-20T19:28:24.145Z,6.72
2022-10-20T19:31:29.942Z,7.20
2022-10-20T19:34:35.903Z,6.60
2022-10-20T19:37:38.962Z,7.32
2022-10-20T19:40:43.910Z,6.88
2022-10-20T19:43:47.410Z,6.88
2022-10-20T19:46:52.625Z,6.60
2022-10-20T19:49:55.273Z,6.05
2022-10-20T19:52:59.348Z,6.47
2022-10-20T19:56:04.550Z,6.32
2022-10-20T19:59:08.139Z,6.38
2022-10-20T20:02:11.994Z,6.25
2022-10-20T20:05:14.956Z,6.18
2022-10-20T20:08:17.629Z,6.13
2022-10-20T20:11:21.999Z,6.68
2022-10-20T20:14:24.410Z,5.97
2022-10-20T20:17:27.616Z,6.15
2022-10-20T20:20:31.677Z,6.15
2022-10-20T20:23:54.452Z,7.13
2022-10-20T20:27:00.162Z,7.03
2022-10-20T20:30:02.581Z,6.50
2022-10-20T20:33:05.547Z,7.28
2022-10-20T20:36:08.782Z,6.57
2022-10-20T20:39:10.918Z,6.18
2022-10-20T20:42:14.740Z,6.82
2022-10-20T20:45:16.729Z,6.60
2022-10-20T20:48:18.865Z,6.35
2022-10-20T20:51:21.000Z,6.38
2022-10-20T20:54:23.153Z,6.78
2022-10-20T20:57:28.731Z,6.32
2022-10-20T21:00:30.671Z,6.57
2022-10-20T21:03:33.655Z,6.10
2022-10-20T21:07:00.648Z,6.60
2022-10-20T21:10:00.464Z,5.78
2022-10-20T21:13:03.840Z,6.50
2022-10-20T21:16:10.839Z,6.90
2022-10-20T21:19:12.926Z,5.95
2022-10-20T21:22:14.973Z,6.35
2022-10-20T21:25:17.200Z,6.38
2022-10-20T21:28:20.547Z,6.68
2022-10-20T21:31:24.198Z,6.93
2022-10-20T21:34:27.280Z,6.40
2022-10-20T21:37:29.268Z,6.30
2022-10-20T21:40:31.907Z,6.25
2022-10-20T21:43:37.371Z,6.22
2022-10-20T21:46:40.602Z,6.07
2022-10-20T21:49:42.547Z,6.70
2022-10-20T21:52:44.502Z,6.40
2022-10-20T21:55:46.502Z,6.47
2022-10-20T21:58:50.294Z,6.68
2022-10-20T22:01:54.187Z,7.65
2022-10-20T22:04:56.100Z,6.95
2022-10-20T22:07:58.044Z,6.40
2022-10-20T22:11:03.241Z,6.82
2022-10-20T22:14:06.781Z,6.30
2022-10-20T22:17:09.033Z,7.07
2022-10-20T22:20:11.391Z,6.15
2022-10-20T22:23:13.539Z,7.03
2022-10-20T22:26:15.523Z,6.10
2022-10-20T22:29:19.845Z,6.88
2022-10-20T22:32:21.885Z,6.75
2022-10-20T22:35:23.894Z,6.57
2022-10-20T22:38:25.888Z,6.47
2022-10-20T22:41:27.926Z,6.47
2022-10-20T22:44:31.199Z,6.15
2022-10-20T22:47:33.154Z,6.93
2022-10-20T22:50:35.236Z,5.95
2022-10-20T22:53:37.277Z,6.72
2022-10-20T22:56:39.210Z,6.80
2022-10-20T22:59:42.722Z,6.55
2022-10-20T23:02:45.081Z,6.35
2022-10-20T23:05:47.010Z,6.40
2022-10-20T23:08:50.727Z,6.40
2022-10-20T23:11:52.783Z,6.10
2022-10-20T23:14:56.436Z,6.53
2022-10-20T23:17:58.605Z,6.25
2022-10-20T23:21:00.683Z,7.00
2022-10-20T23:24:02.895Z,7.03
2022-10-20T23:27:04.929Z,6.38
2022-10-20T23:30:09.698Z,6.85
2022-10-20T23:33:11.623Z,6.68
2022-10-20T23:36:15.139Z,7.13
2022-10-20T23:39:17.287Z,6.65
2022-10-20T23:42:19.251Z,6.43
2022-10-20T23:45:22.594Z,7.00
2022-10-20T23:48:25.346Z,7.03
2022-10-20T23:51:27.691Z,6.82
2022-10-20T23:54:29.707Z,6.40
2022-10-20T23:57:32.009Z,6.32
